Camminghaburen, Netherlands
Current Conditions -  °F | °C
As of 6:16 AM on Saturday 25 Oct 2014 (Local Time) from EHLW Reporting Station
Haze Haze  
Wind Chill: 55°   Ceiling: 1300
Heat Index: 55°   Visibility: 2.4mi
Dew Point: 55°   Wind: 7mph
Humidity: 100%   Direction: 220°SW
Pressure: 29.91"   Gusts: NA
Location:  53.21°N, 5.84°E
Report Text: EHLW 250416Z AUTO 22006KT 3900 BR BKN013 OVC015 13/13 Q1013 GRN
Loading
Personal Weather Stations






























Interactive Weather Map
Tropical Storm Tracking
New forecast layout! Learn more

10-Day Weather Forecast

Advertisements
Track Severe Weather on mobile